createdAt,value
2023-01-28T00:00:22.927Z,3.39
2023-01-28T00:01:27.233Z,3.39
2023-01-28T00:02:31.401Z,3.39
2023-01-28T00:03:35.587Z,3.38
2023-01-28T00:04:39.699Z,3.39
2023-01-28T00:05:46.905Z,3.39
2023-01-28T00:06:50.115Z,3.40
2023-01-28T00:07:54.126Z,3.41
2023-01-28T00:08:58.377Z,3.42
2023-01-28T00:10:02.560Z,3.43
2023-01-28T00:11:06.845Z,3.44
2023-01-28T00:12:10.951Z,3.44
2023-01-28T00:13:15.117Z,3.44
2023-01-28T00:14:19.353Z,3.44
2023-01-28T00:15:23.620Z,3.44
2023-01-28T00:16:27.868Z,3.44
2023-01-28T00:17:31.814Z,3.44
2023-01-28T00:18:36.080Z,3.45
2023-01-28T00:19:40.271Z,3.46
2023-01-28T00:20:44.337Z,3.46
2023-01-28T00:21:48.609Z,3.46
2023-01-28T00:22:52.777Z,3.47
2023-01-28T00:23:57.124Z,3.47
2023-01-28T00:25:01.141Z,3.47
2023-01-28T00:26:05.357Z,3.46
2023-01-28T00:27:23.657Z,3.45
2023-01-28T00:28:26.620Z,3.45
2023-01-28T00:29:30.753Z,3.45
2023-01-28T00:30:35.033Z,3.45
2023-01-28T00:31:39.111Z,3.42
2023-01-28T00:32:44.470Z,3.39
2023-01-28T00:33:47.434Z,3.34
2023-01-28T00:34:51.576Z,3.31
2023-01-28T00:35:55.772Z,3.29
2023-01-28T00:36:59.935Z,3.30
2023-01-28T00:38:04.084Z,3.31
2023-01-28T00:39:08.228Z,3.32
2023-01-28T00:40:12.403Z,3.32
2023-01-28T00:41:22.629Z,3.31
2023-01-28T00:42:25.342Z,3.30
2023-01-28T00:43:29.484Z,3.29
2023-01-28T00:44:33.656Z,3.29
2023-01-28T00:45:37.853Z,3.27
2023-01-28T00:46:42.165Z,3.25
2023-01-28T00:47:46.133Z,3.24
2023-01-28T00:48:50.293Z,3.24
2023-01-28T00:49:54.466Z,3.24
2023-01-28T00:50:58.751Z,3.23
2023-01-28T00:52:02.919Z,3.23
2023-01-28T00:53:07.077Z,3.25
2023-01-28T00:54:11.220Z,3.27
2023-01-28T00:55:15.756Z,3.29
2023-01-28T00:56:19.603Z,3.32
2023-01-28T00:57:23.721Z,3.34
2023-01-28T00:58:27.965Z,3.36
2023-01-28T00:59:32.186Z,3.37
2023-01-28T01:00:36.389Z,3.39
2023-01-28T01:01:40.712Z,3.40
2023-01-28T01:02:44.933Z,3.41
2023-01-28T01:03:49.011Z,3.41
2023-01-28T01:04:53.155Z,3.41
2023-01-28T01:05:57.345Z,3.42
2023-01-28T01:07:01.570Z,3.43
2023-01-28T01:08:05.695Z,3.40
2023-01-28T01:09:09.869Z,3.37
2023-01-28T01:10:14.104Z,3.35
2023-01-28T01:11:18.233Z,3.33
2023-01-28T01:12:22.441Z,3.32
2023-01-28T01:13:26.606Z,3.33
2023-01-28T01:14:30.717Z,3.34
2023-01-28T01:15:34.904Z,3.35
2023-01-28T01:16:39.069Z,3.37
2023-01-28T01:17:43.232Z,3.38
2023-01-28T01:18:47.414Z,3.38
2023-01-28T01:19:51.582Z,3.38
2023-01-28T01:20:55.770Z,3.36
2023-01-28T01:21:59.971Z,3.35
2023-01-28T01:23:04.205Z,3.33
2023-01-28T01:24:08.353Z,3.33
2023-01-28T01:26:39.448Z,3.35
2023-01-28T01:27:43.529Z,3.35
2023-01-28T01:28:47.725Z,3.34
2023-01-28T01:29:51.937Z,3.33
2023-01-28T01:30:56.067Z,3.30
2023-01-28T01:32:00.295Z,3.28
2023-01-28T01:33:04.377Z,3.27
2023-01-28T01:34:08.580Z,3.23
2023-01-28T01:35:13.249Z,3.21
2023-01-28T01:36:16.885Z,3.20
2023-01-28T01:37:21.074Z,3.21
2023-01-28T01:38:25.332Z,3.20
2023-01-28T01:39:29.486Z,3.21
2023-01-28T01:40:33.708Z,3.21
2023-01-28T01:41:37.882Z,3.23
2023-01-28T01:42:42.030Z,3.26
2023-01-28T01:43:46.230Z,3.29
2023-01-28T01:44:50.370Z,3.32
2023-01-28T01:45:54.577Z,3.34
2023-01-28T01:46:58.787Z,3.36
2023-01-28T01:48:02.950Z,3.38
2023-01-28T01:49:07.113Z,3.41
2023-01-28T01:50:11.259Z,3.43
2023-01-28T01:51:15.359Z,3.44
2023-01-28T01:52:19.458Z,3.45
2023-01-28T01:53:23.610Z,3.45
2023-01-28T01:54:27.817Z,3.47
2023-01-28T01:55:32.136Z,3.47
2023-01-28T01:56:36.231Z,3.45
2023-01-28T01:57:40.407Z,3.44
2023-01-28T01:58:44.638Z,3.44
2023-01-28T01:59:48.893Z,3.45
2023-01-28T02:00:52.990Z,3.46
2023-01-28T02:01:57.188Z,3.46
2023-01-28T02:03:01.482Z,3.47
2023-01-28T02:04:05.602Z,3.47
2023-01-28T02:05:09.816Z,3.44
2023-01-28T02:06:13.844Z,3.44
2023-01-28T02:07:18.146Z,3.44
2023-01-28T02:08:22.204Z,3.44
2023-01-28T02:09:26.360Z,3.44
2023-01-28T02:10:30.532Z,3.42
2023-01-28T02:11:34.707Z,3.39
2023-01-28T02:12:38.882Z,3.37
2023-01-28T02:13:43.064Z,3.35
2023-01-28T02:14:47.262Z,3.32
2023-01-28T02:15:51.438Z,3.31
2023-01-28T02:16:55.629Z,3.31
2023-01-28T02:17:59.753Z,3.32
2023-01-28T02:19:03.928Z,3.34
2023-01-28T02:20:08.117Z,3.35
2023-01-28T02:21:12.281Z,3.37
2023-01-28T02:22:16.399Z,3.40
2023-01-28T02:23:20.694Z,3.42
2023-01-28T02:24:25.048Z,3.41
2023-01-28T02:25:29.054Z,3.41
2023-01-28T02:26:34.084Z,3.40
2023-01-28T02:27:38.795Z,3.41
2023-01-28T02:28:42.597Z,3.40
2023-01-28T02:29:46.731Z,3.40
2023-01-28T02:30:51.087Z,3.39
2023-01-28T02:31:55.198Z,3.35
2023-01-28T02:32:59.329Z,3.33
2023-01-28T02:34:03.451Z,3.34
2023-01-28T02:35:07.646Z,3.36
2023-01-28T02:36:11.902Z,3.39
2023-01-28T02:37:16.272Z,3.39
2023-01-28T02:38:20.244Z,3.40
2023-01-28T02:39:24.540Z,3.41
2023-01-28T02:40:28.715Z,3.43
2023-01-28T02:41:32.902Z,3.45
2023-01-28T02:42:37.036Z,3.47
2023-01-28T02:43:41.219Z,3.48
2023-01-28T02:44:45.277Z,3.50
2023-01-28T02:45:49.501Z,3.49
2023-01-28T02:46:53.745Z,3.48
2023-01-28T02:47:57.885Z,3.48
2023-01-28T02:49:02.070Z,3.47
2023-01-28T02:50:09.284Z,3.47
2023-01-28T02:51:12.640Z,3.48
2023-01-28T02:52:16.743Z,3.49
2023-01-28T02:53:20.913Z,3.50
2023-01-28T02:54:25.093Z,3.52
2023-01-28T02:55:29.373Z,3.54
2023-01-28T02:56:33.483Z,3.55
2023-01-28T02:57:37.653Z,3.56
2023-01-28T02:58:41.859Z,3.57
2023-01-28T02:59:46.065Z,3.58
2023-01-28T03:00:50.235Z,3.58
2023-01-28T03:01:54.468Z,3.58
2023-01-28T03:02:58.643Z,3.58
2023-01-28T03:04:16.789Z,3.59
2023-01-28T03:05:19.340Z,3.60
2023-01-28T03:06:23.573Z,3.61
2023-01-28T03:07:27.745Z,3.61
2023-01-28T03:08:31.890Z,3.60
2023-01-28T03:09:36.088Z,3.56
2023-01-28T03:10:40.252Z,3.55
2023-01-28T03:11:44.428Z,3.56
2023-01-28T03:12:48.587Z,3.56
2023-01-28T03:13:52.790Z,3.56
2023-01-28T03:14:56.942Z,3.56
2023-01-28T03:16:01.256Z,3.54
2023-01-28T03:17:05.335Z,3.51
2023-01-28T03:18:09.534Z,3.48
2023-01-28T03:19:13.695Z,3.46
2023-01-28T03:20:34.041Z,3.45
2023-01-28T03:21:37.098Z,3.45
2023-01-28T03:22:41.270Z,3.46
2023-01-28T03:23:45.381Z,3.47
2023-01-28T03:24:49.533Z,3.48
2023-01-28T03:25:53.668Z,3.47
2023-01-28T03:27:03.792Z,3.44
2023-01-28T03:28:06.589Z,3.42
2023-01-28T03:29:10.924Z,3.40
2023-01-28T03:30:14.954Z,3.38
2023-01-28T03:31:19.185Z,3.37
2023-01-28T03:32:23.380Z,3.35
2023-01-28T03:33:33.559Z,3.33
2023-01-28T03:34:36.337Z,3.31
2023-01-28T03:35:40.531Z,3.29
2023-01-28T03:36:44.682Z,3.28
2023-01-28T03:37:48.945Z,3.29
2023-01-28T03:39:07.192Z,3.27
2023-01-28T03:40:10.270Z,3.24
2023-01-28T03:41:14.383Z,3.23
2023-01-28T03:42:18.527Z,3.24
2023-01-28T03:43:22.773Z,3.26
2023-01-28T03:44:26.751Z,3.29
2023-01-28T03:45:31.072Z,3.32
2023-01-28T03:46:35.238Z,3.34
2023-01-28T03:47:39.345Z,3.38
2023-01-28T03:48:43.519Z,3.41
2023-01-28T03:49:47.780Z,3.44
2023-01-28T03:50:51.920Z,3.46
2023-01-28T03:51:56.002Z,3.48
2023-01-28T03:53:00.263Z,3.50
2023-01-28T03:54:04.339Z,3.51
2023-01-28T03:55:08.623Z,3.52
2023-01-28T03:56:12.786Z,3.53
2023-01-28T03:57:16.867Z,3.55
2023-01-28T03:58:28.677Z,3.56
2023-01-28T03:59:31.247Z,3.57
2023-01-28T04:00:35.365Z,3.59
2023-01-28T04:01:39.465Z,3.60
2023-01-28T04:02:43.694Z,3.61
2023-01-28T04:03:47.838Z,3.61
2023-01-28T04:04:52.024Z,3.58
2023-01-28T04:05:56.233Z,3.54
2023-01-28T04:07:00.402Z,3.51
2023-01-28T04:08:04.738Z,3.48
2023-01-28T04:09:08.853Z,3.47
2023-01-28T04:10:13.073Z,3.47
2023-01-28T04:11:17.295Z,3.48
2023-01-28T04:12:21.480Z,3.49
2023-01-28T04:13:25.633Z,3.50
2023-01-28T04:14:29.902Z,3.50
2023-01-28T04:15:34.033Z,3.49
2023-01-28T04:16:38.137Z,3.49
2023-01-28T04:17:42.323Z,3.50
2023-01-28T04:18:46.574Z,3.49
2023-01-28T04:19:50.752Z,3.48
2023-01-28T04:20:54.902Z,3.47
2023-01-28T04:21:59.172Z,3.47
2023-01-28T04:23:03.303Z,3.47
2023-01-28T04:24:07.782Z,3.46
2023-01-28T04:25:11.717Z,3.46
2023-01-28T04:26:15.784Z,3.47
2023-01-28T04:27:19.939Z,3.47
2023-01-28T04:28:24.196Z,3.48
2023-01-28T04:29:28.312Z,3.48
2023-01-28T04:30:32.570Z,3.48
2023-01-28T04:31:36.772Z,3.47
2023-01-28T04:32:40.808Z,3.46
2023-01-28T04:33:45.128Z,3.46
2023-01-28T04:34:49.282Z,3.47
2023-01-28T04:35:53.480Z,3.47
2023-01-28T04:36:57.637Z,3.48
2023-01-28T04:38:01.909Z,3.48
2023-01-28T04:39:06.067Z,3.48
2023-01-28T04:40:10.240Z,3.48
2023-01-28T04:41:14.400Z,3.48
2023-01-28T04:42:18.630Z,3.48
2023-01-28T04:43:22.832Z,3.49
2023-01-28T04:44:26.991Z,3.49
2023-01-28T04:45:31.074Z,3.51
2023-01-28T04:46:35.371Z,3.52
2023-01-28T04:47:39.513Z,3.52
2023-01-28T04:48:43.820Z,3.51
2023-01-28T04:49:47.971Z,3.48
2023-01-28T04:50:52.147Z,3.45
2023-01-28T04:51:56.472Z,3.42
2023-01-28T04:53:00.603Z,3.41
2023-01-28T04:54:04.778Z,3.41
2023-01-28T04:55:09.072Z,3.42
2023-01-28T04:56:13.259Z,3.43
2023-01-28T04:57:17.394Z,3.44
2023-01-28T04:58:21.694Z,3.44
2023-01-28T04:59:25.769Z,3.46
2023-01-28T05:00:29.932Z,3.47
2023-01-28T05:01:34.050Z,3.49
2023-01-28T05:02:38.378Z,3.49
2023-01-28T05:03:42.511Z,3.50
2023-01-28T05:04:46.594Z,3.50
2023-01-28T05:05:50.822Z,3.51
2023-01-28T05:06:58.117Z,3.51
2023-01-28T05:08:01.410Z,3.52
2023-01-28T05:09:05.644Z,3.53
2023-01-28T05:10:09.811Z,3.54
2023-01-28T05:11:13.987Z,3.54
2023-01-28T05:12:18.398Z,3.54
2023-01-28T05:13:22.556Z,3.53
2023-01-28T05:14:26.734Z,3.51
2023-01-28T05:15:30.955Z,3.46
2023-01-28T05:16:35.237Z,3.41
2023-01-28T05:17:39.545Z,3.37
2023-01-28T05:18:44.852Z,3.34
2023-01-28T05:19:47.743Z,3.50
2023-01-28T05:20:51.912Z,3.25
2023-01-28T05:21:56.075Z,3.21
2023-01-28T05:23:00.525Z,3.20
2023-01-28T05:24:04.653Z,3.20
2023-01-28T05:25:08.781Z,3.22
2023-01-28T05:26:12.821Z,3.24
2023-01-28T05:27:17.263Z,3.26
2023-01-28T05:28:21.447Z,3.28
2023-01-28T05:29:25.585Z,3.29
2023-01-28T05:30:29.846Z,3.29
2023-01-28T05:31:34.001Z,3.29
2023-01-28T05:32:38.288Z,3.28
2023-01-28T05:33:42.429Z,3.28
2023-01-28T05:34:46.605Z,3.28
2023-01-28T05:35:50.772Z,3.29
2023-01-28T05:36:54.970Z,3.31
2023-01-28T05:37:59.159Z,3.31
2023-01-28T05:39:04.264Z,3.31
2023-01-28T05:40:08.081Z,3.30
2023-01-28T05:41:12.175Z,3.31
2023-01-28T05:42:16.479Z,3.31
2023-01-28T05:43:20.617Z,3.31
2023-01-28T05:44:24.782Z,3.29
2023-01-28T05:45:28.998Z,3.25
2023-01-28T05:46:34.126Z,3.21
2023-01-28T05:47:37.810Z,3.17
2023-01-28T05:48:41.959Z,3.15
2023-01-28T05:49:46.744Z,3.14
2023-01-28T05:50:51.468Z,3.13
2023-01-28T05:51:55.249Z,3.11
2023-01-28T05:52:59.513Z,3.07
2023-01-28T05:54:03.608Z,3.04
2023-01-28T05:55:07.873Z,3.00
2023-01-28T05:56:12.029Z,2.98
2023-01-28T05:57:16.048Z,2.96
2023-01-28T05:58:20.334Z,2.96
2023-01-28T05:59:24.559Z,2.97
2023-01-28T06:00:28.724Z,2.98
2023-01-28T06:01:32.884Z,2.99
2023-01-28T06:02:37.220Z,3.00
2023-01-28T06:03:41.249Z,2.99
2023-01-28T06:04:45.536Z,2.99
2023-01-28T06:05:49.673Z,2.99
2023-01-28T06:06:53.789Z,2.99
2023-01-28T06:07:58.012Z,3.00
2023-01-28T06:09:02.132Z,3.00
2023-01-28T06:10:06.283Z,3.00
2023-01-28T06:11:10.364Z,3.01
2023-01-28T06:12:14.595Z,3.02
2023-01-28T06:13:18.811Z,3.03
2023-01-28T06:14:22.898Z,3.04
2023-01-28T06:15:27.149Z,3.04
2023-01-28T06:16:31.315Z,3.03
2023-01-28T06:17:35.513Z,3.02
2023-01-28T06:18:39.680Z,3.01
2023-01-28T06:19:43.919Z,2.99
2023-01-28T06:21:02.164Z,2.99
2023-01-28T06:22:05.051Z,2.98
2023-01-28T06:23:09.075Z,2.99
2023-01-28T06:24:13.343Z,2.99
2023-01-28T06:25:17.425Z,3.00
2023-01-28T06:26:21.615Z,3.00
2023-01-28T06:27:25.777Z,3.00
2023-01-28T06:28:29.874Z,2.99
2023-01-28T06:29:48.053Z,2.99
2023-01-28T06:30:50.990Z,2.99
2023-01-28T06:31:55.233Z,2.99
2023-01-28T06:32:59.281Z,3.00
2023-01-28T06:34:03.674Z,3.01
2023-01-28T06:35:07.661Z,3.01
2023-01-28T06:36:11.839Z,3.01
2023-01-28T06:37:15.923Z,3.02
2023-01-28T06:38:20.132Z,3.01
2023-01-28T06:39:24.411Z,3.00
2023-01-28T06:40:28.503Z,2.98
2023-01-28T06:41:32.681Z,2.95
2023-01-28T06:42:36.829Z,2.89
2023-01-28T06:43:41.036Z,2.83
2023-01-28T06:44:45.075Z,2.79
2023-01-28T06:45:49.280Z,2.77
2023-01-28T06:46:53.563Z,2.77
2023-01-28T06:47:57.645Z,2.78
2023-01-28T06:49:01.821Z,2.79
2023-01-28T06:50:06.014Z,2.80
2023-01-28T06:51:10.252Z,2.81
2023-01-28T06:52:14.464Z,2.82
2023-01-28T06:53:18.511Z,2.82
2023-01-28T06:54:22.656Z,2.82
2023-01-28T06:55:26.764Z,2.83
2023-01-28T06:56:30.986Z,2.82
2023-01-28T06:57:35.199Z,2.82
2023-01-28T06:58:40.264Z,2.82
2023-01-28T06:59:44.188Z,2.80
2023-01-28T07:00:48.298Z,2.74
2023-01-28T07:01:52.411Z,2.67
2023-01-28T07:02:56.514Z,2.60
2023-01-28T07:04:00.593Z,2.55
2023-01-28T07:05:04.688Z,2.52
2023-01-28T07:06:08.787Z,2.49
2023-01-28T07:07:12.852Z,2.47
2023-01-28T07:08:17.061Z,2.46
2023-01-28T07:09:21.219Z,2.44
2023-01-28T07:10:25.294Z,2.43
2023-01-28T07:11:29.387Z,2.42
2023-01-28T07:12:33.605Z,2.41
2023-01-28T07:13:37.763Z,2.40
2023-01-28T07:14:41.986Z,2.39
2023-01-28T07:15:46.104Z,2.39
2023-01-28T07:16:50.396Z,2.38
2023-01-28T07:19:21.289Z,2.30
2023-01-28T07:20:25.434Z,2.29
2023-01-28T07:21:29.517Z,2.29
2023-01-28T07:22:33.815Z,2.31
2023-01-28T07:23:37.917Z,2.33
2023-01-28T07:24:42.044Z,2.36
2023-01-28T07:25:46.227Z,2.39
2023-01-28T07:26:50.294Z,2.43
2023-01-28T07:27:54.494Z,2.45
2023-01-28T07:28:58.636Z,2.47
2023-01-28T07:30:02.718Z,2.48
2023-01-28T07:31:06.926Z,2.49
2023-01-28T07:32:11.138Z,2.50
2023-01-28T07:33:15.237Z,2.48
2023-01-28T07:34:19.427Z,2.46
2023-01-28T07:35:23.628Z,2.44
2023-01-28T07:36:27.804Z,2.41
2023-01-28T07:37:31.994Z,2.39
2023-01-28T07:38:36.355Z,2.39
2023-01-28T07:39:40.460Z,2.38
2023-01-28T07:40:44.527Z,2.36
2023-01-28T07:41:48.844Z,2.36
2023-01-28T07:42:53.060Z,2.37
2023-01-28T07:43:57.178Z,2.36
2023-01-28T07:45:01.228Z,2.37
2023-01-28T07:46:05.324Z,2.39
2023-01-28T07:47:09.600Z,2.39
2023-01-28T07:48:13.695Z,2.40
2023-01-28T07:49:17.800Z,2.42
2023-01-28T07:50:21.958Z,2.43
2023-01-28T07:51:26.016Z,2.44
2023-01-28T07:52:30.086Z,2.44
2023-01-28T07:53:34.435Z,2.44
2023-01-28T07:54:38.775Z,2.45
2023-01-28T07:55:44.243Z,2.46
2023-01-28T07:56:50.844Z,2.47
2023-01-28T07:57:56.920Z,2.48
2023-01-28T07:59:19.216Z,2.49
2023-01-28T08:00:22.393Z,2.49
2023-01-28T08:01:26.426Z,2.49
2023-01-28T08:02:33.643Z,2.49
2023-01-28T08:03:40.296Z,2.52
2023-01-28T08:04:44.188Z,2.54
2023-01-28T08:05:48.987Z,2.57
2023-01-28T08:06:52.626Z,2.61
2023-01-28T08:07:59.798Z,2.63
2023-01-28T08:09:03.186Z,2.65
2023-01-28T08:10:07.144Z,2.67
2023-01-28T08:11:11.284Z,2.68
2023-01-28T08:12:15.396Z,2.69
2023-01-28T08:13:19.619Z,2.68
2023-01-28T08:14:23.786Z,2.68
2023-01-28T08:15:27.935Z,2.70
2023-01-28T08:16:32.024Z,2.71
2023-01-28T08:17:36.237Z,2.74
2023-01-28T08:18:40.394Z,2.78
2023-01-28T08:19:50.558Z,2.82
2023-01-28T08:20:53.288Z,2.86
2023-01-28T08:21:58.334Z,2.90
2023-01-28T08:23:02.112Z,2.93
2023-01-28T08:24:06.418Z,2.93
2023-01-28T08:25:10.810Z,2.94
2023-01-28T08:26:14.975Z,2.95
2023-01-28T08:27:19.109Z,2.96
2023-01-28T08:28:23.176Z,2.96
2023-01-28T08:29:27.386Z,2.95
2023-01-28T08:30:37.553Z,2.94
2023-01-28T08:31:40.297Z,2.95
2023-01-28T08:32:44.286Z,2.96
2023-01-28T08:33:48.473Z,2.97
2023-01-28T08:34:52.570Z,2.98
2023-01-28T08:35:56.708Z,2.98
2023-01-28T08:37:01.018Z,2.99
2023-01-28T08:38:05.007Z,3.01
2023-01-28T08:39:09.218Z,3.02
2023-01-28T08:40:13.951Z,3.03
2023-01-28T08:41:17.590Z,3.03
2023-01-28T08:42:21.761Z,3.04
2023-01-28T08:43:25.928Z,3.04
2023-01-28T08:44:30.158Z,3.05
2023-01-28T08:45:35.278Z,3.07
2023-01-28T08:46:39.097Z,3.08
2023-01-28T08:47:43.108Z,3.08
2023-01-28T08:48:47.330Z,3.07
2023-01-28T08:49:51.439Z,3.07
2023-01-28T08:50:55.595Z,3.06
2023-01-28T08:51:59.745Z,3.06
2023-01-28T08:53:04.021Z,3.06
2023-01-28T08:54:08.150Z,3.06
2023-01-28T08:55:12.340Z,3.06
2023-01-28T08:56:16.417Z,3.08
2023-01-28T08:57:20.646Z,3.09
2023-01-28T08:58:24.847Z,3.11
2023-01-28T08:59:29.012Z,3.11
2023-01-28T09:00:33.199Z,3.09
2023-01-28T09:01:37.417Z,3.08
2023-01-28T09:02:41.444Z,3.06
2023-01-28T09:03:45.772Z,3.06
2023-01-28T09:04:49.892Z,3.05
2023-01-28T09:05:54.064Z,3.07
2023-01-28T09:06:58.211Z,3.09
2023-01-28T09:08:02.367Z,3.10
2023-01-28T09:09:06.442Z,3.12
2023-01-28T09:10:10.681Z,3.13
2023-01-28T09:11:14.821Z,3.14
2023-01-28T09:12:18.990Z,3.17
2023-01-28T09:13:23.181Z,3.20
2023-01-28T09:14:27.381Z,3.21
2023-01-28T09:15:31.457Z,3.22
2023-01-28T09:16:35.622Z,3.21
2023-01-28T09:17:39.843Z,3.22
2023-01-28T09:18:43.913Z,3.23
2023-01-28T09:19:48.242Z,3.24
2023-01-28T09:20:52.291Z,3.25
2023-01-28T09:21:56.395Z,3.27
2023-01-28T09:23:00.584Z,3.30
2023-01-28T09:24:04.691Z,3.33
2023-01-28T09:25:08.849Z,3.35
2023-01-28T09:26:13.017Z,3.35
2023-01-28T09:27:17.132Z,3.34
2023-01-28T09:28:21.285Z,3.34
2023-01-28T09:29:25.425Z,3.36
2023-01-28T09:30:29.704Z,3.38
2023-01-28T09:31:33.687Z,3.41
2023-01-28T09:32:37.867Z,3.43
2023-01-28T09:33:41.997Z,3.45
2023-01-28T09:34:46.099Z,3.46
2023-01-28T09:35:50.344Z,3.47
2023-01-28T09:36:57.479Z,3.47
2023-01-28T09:38:00.759Z,3.45
2023-01-28T09:39:04.865Z,3.44
2023-01-28T09:40:09.029Z,3.42
2023-01-28T09:41:13.186Z,3.39
2023-01-28T09:42:17.283Z,3.39
2023-01-28T09:43:21.460Z,3.39
2023-01-28T09:44:25.644Z,3.38
2023-01-28T09:45:29.836Z,3.38
2023-01-28T09:46:33.994Z,3.39
2023-01-28T09:47:38.266Z,3.38
2023-01-28T09:48:42.412Z,3.38
2023-01-28T09:49:46.625Z,3.39
2023-01-28T09:50:50.751Z,3.41
2023-01-28T09:51:54.976Z,3.41
2023-01-28T09:52:59.110Z,3.42
2023-01-28T09:54:03.375Z,3.43
2023-01-28T09:55:07.511Z,3.44
2023-01-28T09:56:11.638Z,3.44
2023-01-28T09:57:15.830Z,3.44
2023-01-28T09:58:19.989Z,3.44
2023-01-28T09:59:24.146Z,3.44
2023-01-28T10:00:42.394Z,3.45
2023-01-28T10:01:45.127Z,3.48
2023-01-28T10:02:49.197Z,3.49
2023-01-28T10:03:53.461Z,3.51
2023-01-28T10:04:57.474Z,3.54
2023-01-28T10:06:01.697Z,3.55
2023-01-28T10:07:05.909Z,3.58
2023-01-28T10:08:10.039Z,3.59
2023-01-28T10:09:14.252Z,3.60
2023-01-28T10:10:18.735Z,3.61
2023-01-28T10:11:22.722Z,3.60
2023-01-28T10:12:26.917Z,3.58
2023-01-28T10:13:31.090Z,3.57
2023-01-28T10:14:35.333Z,3.55
2023-01-28T10:15:42.585Z,3.53
2023-01-28T10:16:59.923Z,3.53
2023-01-28T10:18:16.152Z,3.55
2023-01-28T10:19:06.721Z,3.55
2023-01-28T10:20:10.799Z,3.55
2023-01-28T10:21:14.907Z,3.57
2023-01-28T10:22:19.035Z,3.60
2023-01-28T10:23:23.306Z,3.61
2023-01-28T10:24:27.541Z,3.61
2023-01-28T10:25:31.778Z,3.58
2023-01-28T10:26:35.901Z,3.58
2023-01-28T10:27:40.078Z,3.56
2023-01-28T10:28:44.165Z,3.55
2023-01-28T10:29:48.272Z,3.55
2023-01-28T10:30:52.505Z,3.56
2023-01-28T10:31:56.736Z,3.55
2023-01-28T10:33:00.732Z,3.54
2023-01-28T10:34:04.998Z,3.55
2023-01-28T10:35:09.158Z,3.58
2023-01-28T10:36:13.491Z,3.60
2023-01-28T10:37:17.550Z,3.61
2023-01-28T10:38:21.731Z,3.62
2023-01-28T10:39:25.786Z,3.64
2023-01-28T10:40:30.035Z,3.68
2023-01-28T10:41:34.626Z,3.71
2023-01-28T10:42:38.405Z,3.72
2023-01-28T10:43:42.539Z,3.74
2023-01-28T10:44:46.851Z,3.75
2023-01-28T10:45:51.111Z,3.75
2023-01-28T10:46:55.023Z,3.76
2023-01-28T10:47:59.148Z,3.76
2023-01-28T10:49:03.386Z,3.77
2023-01-28T10:50:07.567Z,3.79
2023-01-28T10:51:11.638Z,3.82
2023-01-28T10:52:15.916Z,3.85
2023-01-28T10:53:20.134Z,3.88
2023-01-28T10:54:24.332Z,3.92
2023-01-28T10:55:28.519Z,3.95
2023-01-28T10:56:32.678Z,3.97
2023-01-28T10:57:36.880Z,3.99
2023-01-28T10:58:41.024Z,4.02
2023-01-28T10:59:45.183Z,4.05
2023-01-28T11:00:49.445Z,4.07
2023-01-28T11:01:53.820Z,4.09
2023-01-28T11:02:57.807Z,4.11
2023-01-28T11:04:02.017Z,4.13
2023-01-28T11:05:06.265Z,4.15
2023-01-28T11:06:10.437Z,4.18
2023-01-28T11:07:14.584Z,4.20
2023-01-28T11:08:18.720Z,4.18
2023-01-28T11:09:22.798Z,4.15
2023-01-28T11:10:27.077Z,4.13
2023-01-28T11:11:31.272Z,4.11
2023-01-28T11:12:35.477Z,4.11
2023-01-28T11:13:39.657Z,4.10
2023-01-28T11:14:43.789Z,4.10
2023-01-28T11:15:48.082Z,4.11
2023-01-28T11:16:52.201Z,4.12
2023-01-28T11:17:56.506Z,4.11
2023-01-28T11:19:00.722Z,4.09
2023-01-28T11:20:04.851Z,4.06
2023-01-28T11:21:09.019Z,4.05
2023-01-28T11:22:13.187Z,4.02
2023-01-28T11:23:17.367Z,4.00
2023-01-28T11:24:21.623Z,3.99
2023-01-28T11:25:25.738Z,3.99
2023-01-28T11:26:29.923Z,4.01
2023-01-28T11:27:34.032Z,4.01
2023-01-28T11:28:38.227Z,4.00
2023-01-28T11:29:42.406Z,4.00
2023-01-28T11:30:52.704Z,4.01
2023-01-28T11:31:55.441Z,4.01
2023-01-28T11:32:59.543Z,4.03
2023-01-28T11:34:03.736Z,4.03
2023-01-28T11:35:07.912Z,4.01
2023-01-28T11:36:12.129Z,3.96
2023-01-28T11:37:16.178Z,3.93
2023-01-28T11:38:20.406Z,3.89
2023-01-28T11:39:24.456Z,3.90
2023-01-28T11:40:28.818Z,3.90
2023-01-28T11:41:33.010Z,3.89
2023-01-28T11:42:38.060Z,3.88
2023-01-28T11:43:41.971Z,3.88
2023-01-28T11:44:46.219Z,3.88
2023-01-28T11:45:50.274Z,3.88
2023-01-28T11:46:54.439Z,3.88
2023-01-28T11:47:58.495Z,3.90
2023-01-28T11:49:02.782Z,3.93
2023-01-28T11:50:07.026Z,3.97
2023-01-28T11:51:11.134Z,3.98
2023-01-28T11:52:15.335Z,3.98
2023-01-28T11:53:19.496Z,4.00
2023-01-28T11:54:23.800Z,4.03
2023-01-28T11:55:27.977Z,4.05
2023-01-28T11:56:32.156Z,4.06
2023-01-28T11:57:36.437Z,4.07
2023-01-28T11:58:40.564Z,4.11
2023-01-28T11:59:44.909Z,4.14
2023-01-28T12:00:49.045Z,4.16
2023-01-28T12:01:53.369Z,4.17
2023-01-28T12:02:57.645Z,4.17
2023-01-28T12:04:01.715Z,4.14
2023-01-28T12:05:05.946Z,4.12
2023-01-28T12:06:10.172Z,4.10
2023-01-28T12:07:14.342Z,4.09
2023-01-28T12:08:32.590Z,4.09
2023-01-28T12:09:35.691Z,4.10
2023-01-28T12:10:39.730Z,4.10
2023-01-28T12:11:55.995Z,4.12
2023-01-28T12:12:58.206Z,4.13
2023-01-28T12:14:02.379Z,4.14
2023-01-28T12:15:06.426Z,4.14
2023-01-28T12:16:10.717Z,4.15
2023-01-28T12:17:14.940Z,4.15
2023-01-28T12:18:19.107Z,4.16
2023-01-28T12:19:23.147Z,4.16
2023-01-28T12:20:27.421Z,4.16
2023-01-28T12:21:31.741Z,4.16
2023-01-28T12:22:35.825Z,4.16
2023-01-28T12:23:39.910Z,4.16
2023-01-28T12:24:44.251Z,4.13
2023-01-28T12:25:48.407Z,4.06
2023-01-28T12:26:52.496Z,3.98
2023-01-28T12:27:56.588Z,3.93
2023-01-28T12:29:14.849Z,3.91
2023-01-28T12:30:18.222Z,3.94
2023-01-28T12:31:22.082Z,4.00
2023-01-28T12:32:32.185Z,4.06
2023-01-28T12:33:34.965Z,4.13
2023-01-28T12:34:39.136Z,4.21
2023-01-28T12:35:43.355Z,4.28
2023-01-28T12:36:47.711Z,4.35
2023-01-28T12:37:51.818Z,4.43
2023-01-28T12:38:56.020Z,4.48
2023-01-28T12:40:00.267Z,4.52
2023-01-28T12:41:04.398Z,4.58
2023-01-28T12:42:08.586Z,4.65
2023-01-28T12:43:12.784Z,4.71
2023-01-28T12:44:16.983Z,4.75
2023-01-28T12:45:22.170Z,4.76
2023-01-28T12:46:26.015Z,4.73
2023-01-28T12:47:30.305Z,4.71
2023-01-28T12:48:34.464Z,4.70
2023-01-28T12:49:38.653Z,4.66
2023-01-28T12:50:42.958Z,4.66
2023-01-28T12:51:47.267Z,4.67
2023-01-28T12:52:51.328Z,4.73
2023-01-28T12:53:55.531Z,4.75
2023-01-28T12:54:59.791Z,4.79
2023-01-28T12:56:03.996Z,4.88
2023-01-28T12:57:11.287Z,4.98
2023-01-28T12:58:14.564Z,5.09
2023-01-28T12:59:18.839Z,5.22
2023-01-28T13:00:22.986Z,5.35
2023-01-28T13:01:27.203Z,5.46
2023-01-28T13:02:31.504Z,5.58
2023-01-28T13:03:35.684Z,5.69
2023-01-28T13:04:40.144Z,5.80
2023-01-28T13:05:44.106Z,5.90
2023-01-28T13:06:48.280Z,6.00
2023-01-28T13:07:52.422Z,6.10
2023-01-28T13:08:56.775Z,6.20
2023-01-28T13:10:00.858Z,6.21
2023-01-28T13:11:04.998Z,6.17
2023-01-28T13:12:09.293Z,6.13
2023-01-28T13:13:13.710Z,6.09
2023-01-28T13:14:17.812Z,6.07
2023-01-28T13:15:21.955Z,6.05
2023-01-28T13:16:36.683Z,6.09
2023-01-28T13:17:30.244Z,6.13
2023-01-28T13:18:34.514Z,6.22
2023-01-28T13:19:38.732Z,6.29
2023-01-28T13:20:42.971Z,6.37
2023-01-28T13:21:49.422Z,6.46
2023-01-28T13:22:51.401Z,6.53
2023-01-28T13:23:55.639Z,6.58
2023-01-28T13:24:59.786Z,6.61
2023-01-28T13:26:03.995Z,6.64
2023-01-28T13:27:09.119Z,6.68
2023-01-28T13:28:12.921Z,6.72
2023-01-28T13:29:17.229Z,6.75
2023-01-28T13:30:21.363Z,6.78
2023-01-28T13:31:25.671Z,6.78
2023-01-28T13:32:29.934Z,6.74
2023-01-28T13:33:33.943Z,6.74
2023-01-28T13:34:38.243Z,6.72
2023-01-28T13:35:42.498Z,6.70
2023-01-28T13:36:46.738Z,6.68
2023-01-28T13:37:50.900Z,6.60
2023-01-28T13:38:55.141Z,6.44
2023-01-28T13:39:59.379Z,6.31
2023-01-28T13:41:03.569Z,6.19
2023-01-28T13:42:07.749Z,6.05
2023-01-28T13:43:11.952Z,5.88
2023-01-28T13:44:16.255Z,5.72
2023-01-28T13:45:20.399Z,5.58
2023-01-28T13:46:24.497Z,5.48
2023-01-28T13:47:28.610Z,5.43
2023-01-28T13:48:32.845Z,5.39
2023-01-28T13:49:36.937Z,5.34
2023-01-28T13:50:41.187Z,5.29
2023-01-28T13:51:45.464Z,5.23
2023-01-28T13:52:49.547Z,5.21
2023-01-28T13:53:53.938Z,5.16
2023-01-28T13:54:57.976Z,5.08
2023-01-28T13:56:02.177Z,5.00
2023-01-28T13:57:12.412Z,4.93
2023-01-28T13:58:15.092Z,4.87
2023-01-28T13:59:19.306Z,4.79
2023-01-28T14:00:26.285Z,4.73
2023-01-28T14:01:27.768Z,4.67
2023-01-28T14:02:32.024Z,4.62
2023-01-28T14:03:36.218Z,4.60
2023-01-28T14:04:40.514Z,4.60
2023-01-28T14:05:44.523Z,4.55
2023-01-28T14:06:48.779Z,4.49
2023-01-28T14:07:53.000Z,4.48
2023-01-28T14:08:57.184Z,4.49
2023-01-28T14:10:01.434Z,4.52
2023-01-28T14:11:05.580Z,4.59
2023-01-28T14:12:09.713Z,4.62
2023-01-28T14:13:13.923Z,4.65
2023-01-28T14:14:18.079Z,4.68
2023-01-28T14:15:22.339Z,4.70
2023-01-28T14:16:26.476Z,4.72
2023-01-28T14:17:30.678Z,4.73
2023-01-28T14:18:34.863Z,4.71
2023-01-28T14:19:39.138Z,4.69
2023-01-28T14:20:43.408Z,4.68